Zullinger, Pennsylvania
Current Conditions -  °F | °C
As of 12:53 PM on Sunday 25 Jan 2015 (Local Time) from KHGR Reporting Station
Overcast Overcast  
Wind Chill: 39°   Ceiling: 3900
Heat Index: 42°   Visibility: 10mi
Dew Point: 29°   Wind: 5mph
Humidity: 60%   Direction: 220°SW
Pressure: 29.8"   Gusts: NA
Location:  39.77°N, 77.63°W
Report Text: KHGR 251753Z 22004KT 10SM OVC039 06/M02 A2980 RMK AO2 SLP105 T00561017 10061 20028 50001
Loading
Personal Weather Stations






























Interactive Weather Map New forecast layout! Learn more

10-Day Weather Forecast

Advertisements
Track Severe Weather on mobile